createdAt,value
2022-10-18T00:00:12.476Z,20.80
2022-10-18T00:03:02.623Z,20.23
2022-10-18T00:05:32.812Z,20.98
2022-10-18T00:08:02.301Z,26.08
2022-10-18T00:10:33.056Z,27.65
2022-10-18T00:13:03.940Z,20.48
2022-10-18T00:15:32.912Z,21.90
2022-10-18T00:18:03.576Z,27.08
2022-10-18T00:20:32.075Z,24.95
2022-10-18T00:23:06.760Z,24.30
2022-10-18T00:25:35.489Z,21.83
2022-10-18T00:28:06.133Z,25.33
2022-10-18T00:30:35.577Z,25.83
2022-10-18T00:33:06.591Z,24.75
2022-10-18T00:35:37.165Z,25.65
2022-10-18T00:38:08.408Z,24.42
2022-10-18T00:40:43.752Z,27.10
2022-10-18T00:43:25.476Z,23.50
2022-10-18T00:45:53.952Z,26.20
2022-10-18T00:48:26.150Z,25.08
2022-10-18T00:50:55.138Z,25.27
2022-10-18T00:53:25.091Z,26.20
2022-10-18T00:55:57.350Z,27.00
2022-10-18T00:58:28.861Z,52.00
2022-10-18T01:00:59.683Z,59.47
2022-10-18T01:03:32.611Z,74.95
2022-10-18T01:06:02.259Z,79.93
2022-10-18T01:08:45.430Z,84.03
2022-10-18T01:11:52.828Z,82.80
2022-10-18T01:14:48.543Z,84.38
2022-10-18T01:17:42.723Z,95.07
2022-10-18T01:20:39.640Z,114.20
2022-10-18T01:23:39.569Z,122.15
2022-10-18T01:26:37.196Z,122.93
2022-10-18T01:29:26.406Z,66.72
2022-10-18T01:32:02.193Z,83.75
2022-10-18T01:34:35.608Z,116.00
2022-10-18T01:37:11.557Z,85.10
2022-10-18T01:39:45.286Z,79.30
2022-10-18T01:42:19.902Z,79.70
2022-10-18T01:45:01.305Z,65.10
2022-10-18T01:47:32.802Z,70.80
2022-10-18T01:50:05.009Z,74.43
2022-10-18T01:52:39.664Z,54.28
2022-10-18T01:55:15.630Z,43.63
2022-10-18T01:58:06.463Z,42.63
2022-10-18T02:00:42.486Z,43.28
2022-10-18T02:03:25.522Z,37.80
2022-10-18T02:06:01.065Z,34.83
2022-10-18T02:08:47.600Z,31.30
2022-10-18T02:11:20.931Z,28.95
2022-10-18T02:14:16.847Z,33.35
2022-10-18T02:16:51.580Z,26.88
2022-10-18T02:19:33.216Z,28.95
2022-10-18T02:22:04.382Z,30.35
2022-10-18T02:24:49.569Z,30.80
2022-10-18T02:27:20.089Z,28.45
2022-10-18T02:29:50.068Z,25.88
2022-10-18T02:32:29.584Z,27.75
2022-10-18T02:35:14.813Z,25.10
2022-10-18T02:37:44.928Z,29.27
2022-10-18T02:40:16.373Z,26.42
2022-10-18T02:42:51.018Z,27.10
2022-10-18T02:45:22.064Z,30.58
2022-10-18T02:48:09.935Z,31.98
2022-10-18T02:50:48.576Z,28.55
2022-10-18T02:53:19.620Z,37.28
2022-10-18T02:55:48.718Z,32.72
2022-10-18T02:58:19.278Z,32.45
2022-10-18T03:00:53.746Z,30.23
2022-10-18T03:03:23.729Z,32.60
2022-10-18T03:05:53.097Z,31.95
2022-10-18T03:08:26.694Z,34.15
2022-10-18T03:11:01.794Z,31.02
2022-10-18T03:13:34.420Z,30.10
2022-10-18T03:16:05.944Z,36.55
2022-10-18T03:18:42.600Z,30.30
2022-10-18T03:21:11.458Z,32.53
2022-10-18T03:23:42.790Z,30.63
2022-10-18T03:26:13.243Z,29.70
2022-10-18T03:28:41.461Z,28.52
2022-10-18T03:31:23.518Z,31.40
2022-10-18T03:33:53.098Z,35.72
2022-10-18T03:36:23.369Z,43.70
2022-10-18T03:38:51.584Z,34.78
2022-10-18T03:41:22.664Z,31.83
2022-10-18T03:43:52.392Z,32.58
2022-10-18T03:46:21.881Z,34.42
2022-10-18T03:48:52.696Z,31.83
2022-10-18T03:51:20.964Z,31.75
2022-10-18T03:53:49.810Z,33.10
2022-10-18T03:56:25.532Z,33.70
2022-10-18T03:58:57.653Z,35.22
2022-10-18T04:01:26.391Z,38.42
2022-10-18T04:03:57.269Z,32.35
2022-10-18T04:06:36.736Z,34.85
2022-10-18T04:09:10.522Z,29.67
2022-10-18T04:11:40.644Z,29.63
2022-10-18T04:14:15.692Z,34.53
2022-10-18T04:16:50.558Z,33.63
2022-10-18T04:19:19.991Z,32.53
2022-10-18T04:21:48.640Z,32.60
2022-10-18T04:24:20.575Z,35.78
2022-10-18T04:26:50.148Z,40.65
2022-10-18T04:29:21.936Z,34.97
2022-10-18T04:31:52.063Z,40.40
2022-10-18T04:34:22.643Z,49.85
2022-10-18T04:36:51.893Z,45.03
2022-10-18T04:39:20.103Z,47.35
2022-10-18T04:41:51.499Z,40.78
2022-10-18T04:44:21.132Z,42.22
2022-10-18T04:46:52.015Z,47.35
2022-10-18T04:49:21.548Z,45.40
2022-10-18T04:51:55.378Z,49.75
2022-10-18T04:54:25.230Z,43.55
2022-10-18T04:56:57.294Z,45.58
2022-10-18T04:59:25.431Z,45.03
2022-10-18T05:04:35.624Z,49.60
2022-10-18T05:07:06.653Z,53.33
2022-10-18T05:09:35.832Z,51.75
2022-10-18T05:12:05.729Z,52.58
2022-10-18T05:14:35.660Z,43.95
2022-10-18T05:17:05.673Z,47.40
2022-10-18T05:19:37.546Z,45.83
2022-10-18T05:22:09.615Z,55.08
2022-10-18T05:27:15.077Z,53.40
2022-10-18T05:29:46.176Z,47.17
2022-10-18T05:32:14.753Z,47.45
2022-10-18T05:34:43.743Z,45.00
2022-10-18T05:37:15.718Z,53.88
2022-10-18T05:39:45.552Z,67.07
2022-10-18T05:42:14.949Z,51.53
2022-10-18T05:44:46.763Z,45.22
2022-10-18T05:47:16.305Z,35.65
2022-10-18T05:49:44.906Z,37.95
2022-10-18T05:52:17.123Z,38.17
2022-10-18T05:54:45.601Z,30.90
2022-10-18T05:57:14.265Z,40.42
2022-10-18T05:59:44.516Z,51.53
2022-10-18T06:02:14.716Z,63.47
2022-10-18T06:04:43.739Z,41.50
2022-10-18T06:07:16.949Z,39.70
2022-10-18T06:09:47.453Z,36.78
2022-10-18T06:12:18.469Z,39.30
2022-10-18T06:14:49.456Z,37.30
2022-10-18T06:17:20.890Z,34.67
2022-10-18T06:19:50.823Z,37.55
2022-10-18T06:22:24.894Z,30.15
2022-10-18T06:25:03.183Z,32.75
2022-10-18T06:27:36.503Z,33.60
2022-10-18T06:30:07.241Z,36.33
2022-10-18T06:32:39.085Z,31.65
2022-10-18T06:35:09.070Z,30.65
2022-10-18T06:37:49.266Z,32.33
2022-10-18T06:40:18.785Z,28.75
2022-10-18T06:42:59.967Z,32.33
2022-10-18T06:45:30.068Z,32.25
2022-10-18T06:48:02.651Z,35.22
2022-10-18T06:50:33.744Z,27.00
2022-10-18T06:53:08.688Z,27.13
2022-10-18T06:55:39.321Z,30.38
2022-10-18T06:58:12.413Z,29.58
2022-10-18T07:00:50.957Z,26.77
2022-10-18T07:03:24.567Z,25.58
2022-10-18T07:05:55.720Z,35.65
2022-10-18T07:08:26.797Z,27.73
2022-10-18T07:10:58.615Z,27.88
2022-10-18T07:13:33.794Z,32.03
2022-10-18T07:16:18.423Z,32.28
2022-10-18T07:18:54.208Z,29.85
2022-10-18T07:21:28.228Z,28.02
2022-10-18T07:24:01.190Z,28.33
2022-10-18T07:26:37.154Z,33.08
2022-10-18T07:29:10.001Z,28.15
2022-10-18T07:31:40.369Z,27.00
2022-10-18T07:34:16.895Z,29.85
2022-10-18T07:36:45.685Z,29.40
2022-10-18T07:39:15.758Z,27.35
2022-10-18T07:41:46.606Z,26.95
2022-10-18T07:44:18.707Z,26.17
2022-10-18T07:46:51.217Z,32.38
2022-10-18T07:49:20.032Z,28.08
2022-10-18T07:51:55.390Z,25.75
2022-10-18T07:54:27.200Z,28.05
2022-10-18T07:56:55.760Z,37.28
2022-10-18T07:59:24.313Z,25.63
2022-10-18T08:01:58.919Z,24.05
2022-10-18T08:08:57.333Z,24.10
2022-10-18T08:11:36.927Z,26.23
2022-10-18T08:14:06.696Z,37.92
2022-10-18T08:16:37.304Z,47.13
2022-10-18T08:19:09.782Z,27.00
2022-10-18T08:21:43.797Z,28.52
2022-10-18T08:24:14.831Z,97.38
2022-10-18T08:26:44.136Z,36.47
2022-10-18T08:29:23.355Z,31.23
2022-10-18T08:32:05.983Z,27.50
2022-10-18T08:34:36.587Z,23.80
2022-10-18T08:37:23.274Z,20.63
2022-10-18T08:42:34.506Z,25.13
2022-10-18T08:45:17.793Z,27.08
2022-10-18T08:47:57.385Z,25.73
2022-10-18T08:50:32.600Z,26.55
2022-10-18T08:53:02.491Z,22.95
2022-10-18T08:55:41.842Z,23.08
2022-10-18T08:58:17.100Z,24.60
2022-10-18T09:01:09.261Z,21.77
2022-10-18T09:03:49.399Z,22.25
2022-10-18T09:06:29.494Z,21.98
2022-10-18T09:08:59.037Z,21.77
2022-10-18T09:11:34.211Z,20.80
2022-10-18T09:14:09.833Z,21.10
2022-10-18T09:16:55.871Z,21.27
2022-10-18T09:19:43.820Z,21.00
2022-10-18T09:22:18.913Z,32.30
2022-10-18T09:27:21.197Z,24.45
2022-10-18T09:29:50.692Z,25.58
2022-10-18T09:32:34.267Z,21.85
2022-10-18T09:35:15.512Z,22.20
2022-10-18T09:37:54.943Z,21.60
2022-10-18T09:40:37.385Z,28.52
2022-10-18T09:43:12.053Z,22.58
2022-10-18T09:45:52.643Z,22.75
2022-10-18T09:48:21.740Z,24.63
2022-10-18T09:51:27.406Z,20.38
2022-10-18T09:54:03.090Z,25.42
2022-10-18T09:56:45.934Z,22.95
2022-10-18T09:59:32.296Z,24.02
2022-10-18T10:02:03.566Z,25.23
2022-10-18T10:04:42.860Z,22.40
2022-10-18T10:07:58.701Z,21.85
2022-10-18T10:10:30.881Z,25.07
2022-10-18T10:13:03.826Z,28.38
2022-10-18T10:15:38.112Z,23.02
2022-10-18T10:18:33.067Z,23.00
2022-10-18T10:21:06.227Z,27.00
2022-10-18T10:23:47.434Z,19.30
2022-10-18T10:26:28.440Z,20.48
2022-10-18T10:28:57.797Z,20.92
2022-10-18T10:31:31.629Z,23.83
2022-10-18T10:34:06.908Z,24.52
2022-10-18T10:36:47.755Z,19.58
2022-10-18T10:39:19.811Z,32.97
2022-10-18T10:42:00.541Z,26.40
2022-10-18T10:44:31.394Z,21.33
2022-10-18T10:47:01.334Z,20.50
2022-10-18T10:49:44.808Z,21.98
2022-10-18T10:52:28.349Z,23.08
2022-10-18T10:55:16.954Z,22.58
2022-10-18T10:58:06.882Z,19.40
2022-10-18T11:00:41.108Z,19.83
2022-10-18T11:03:28.088Z,20.38
2022-10-18T11:06:01.214Z,32.72
2022-10-18T11:08:41.164Z,22.48
2022-10-18T11:11:23.139Z,21.35
2022-10-18T11:17:29.714Z,25.02
2022-10-18T11:24:19.311Z,23.00
2022-10-18T11:38:02.699Z,28.40
2022-10-18T11:41:23.424Z,72.43
2022-10-18T11:44:52.592Z,49.60
2022-10-18T11:47:58.234Z,36.88
2022-10-18T11:54:11.824Z,20.63
2022-10-18T12:04:28.181Z,26.30
2022-10-18T12:11:11.007Z,16.38
2022-10-18T12:18:48.792Z,15.63
2022-10-18T12:21:35.386Z,14.10
2022-10-18T12:24:14.560Z,19.27
2022-10-18T12:26:43.920Z,26.48
2022-10-18T12:29:22.886Z,80.85
2022-10-18T12:31:58.085Z,35.75
2022-10-18T12:34:46.008Z,79.63
2022-10-18T12:37:54.052Z,43.97
2022-10-18T12:40:37.475Z,20.48
2022-10-18T12:43:23.120Z,16.27
2022-10-18T12:46:01.324Z,25.88
2022-10-18T12:48:36.711Z,22.40
2022-10-18T12:54:33.672Z,22.17
2022-10-18T13:01:30.533Z,13.75
2022-10-18T13:04:50.870Z,16.80
2022-10-18T13:07:47.119Z,14.30
2022-10-18T13:10:37.754Z,17.38
2022-10-18T13:13:39.608Z,14.57
2022-10-18T13:16:11.775Z,11.80
2022-10-18T13:18:53.654Z,12.10
2022-10-18T13:21:33.812Z,17.20
2022-10-18T13:24:23.195Z,13.13
2022-10-18T13:30:48.661Z,12.90
2022-10-18T13:33:31.477Z,14.60
2022-10-18T13:36:07.045Z,12.45
2022-10-18T13:39:06.687Z,11.93
2022-10-18T13:42:01.025Z,26.98
2022-10-18T13:48:31.793Z,36.92
2022-10-18T13:51:26.717Z,21.52
2022-10-18T13:54:10.599Z,16.95
2022-10-18T13:57:13.717Z,25.15
2022-10-18T14:00:48.167Z,24.58
2022-10-18T14:03:58.276Z,43.13
2022-10-18T14:06:51.674Z,34.33
2022-10-18T14:09:54.258Z,123.50
2022-10-18T14:12:50.287Z,47.72
2022-10-18T14:15:43.334Z,22.15
2022-10-18T14:18:41.016Z,37.13
2022-10-18T14:21:31.451Z,24.60
2022-10-18T14:24:09.460Z,28.05
2022-10-18T14:26:41.796Z,20.40
2022-10-18T14:29:25.766Z,15.70
2022-10-18T14:32:05.687Z,20.60
2022-10-18T14:34:36.038Z,10.65
2022-10-18T14:37:28.280Z,10.65
2022-10-18T14:40:01.795Z,55.13
2022-10-18T14:42:34.758Z,41.65
2022-10-18T14:45:19.512Z,16.60
2022-10-18T14:47:50.199Z,74.07
2022-10-18T14:50:31.853Z,23.40
2022-10-18T14:53:06.996Z,25.00
2022-10-18T14:55:42.297Z,36.50
2022-10-18T14:58:21.176Z,70.32
2022-10-18T15:00:51.976Z,28.23
2022-10-18T15:03:34.123Z,30.58
2022-10-18T15:06:07.640Z,24.30
2022-10-18T15:08:42.298Z,20.65
2022-10-18T15:11:14.519Z,25.90
2022-10-18T15:14:07.027Z,21.27
2022-10-18T15:16:40.732Z,31.52
2022-10-18T15:19:18.164Z,25.00
2022-10-18T15:25:15.230Z,62.78
2022-10-18T15:27:51.388Z,70.97
2022-10-18T15:30:47.545Z,53.85
2022-10-18T15:33:25.804Z,116.68
2022-10-18T15:35:56.469Z,145.50
2022-10-18T15:38:37.025Z,123.22
2022-10-18T15:41:41.776Z,51.13
2022-10-18T15:44:35.642Z,43.25
2022-10-18T15:47:21.026Z,107.75
2022-10-18T15:49:51.813Z,127.70
2022-10-18T15:52:42.845Z,86.10
2022-10-18T15:58:45.570Z,47.25
2022-10-18T16:01:25.692Z,49.72
2022-10-18T16:04:01.455Z,55.88
2022-10-18T16:06:45.405Z,43.08
2022-10-18T16:14:08.389Z,136.57
2022-10-18T16:16:39.617Z,104.35
2022-10-18T16:19:10.299Z,27.65
2022-10-18T16:21:48.484Z,36.83
2022-10-18T16:24:17.785Z,38.22
2022-10-18T16:26:48.901Z,38.45
2022-10-18T16:29:24.452Z,55.88
2022-10-18T16:32:05.153Z,53.08
2022-10-18T16:34:36.841Z,120.30
2022-10-18T16:37:06.891Z,61.83
2022-10-18T16:39:40.038Z,26.00
2022-10-18T16:42:08.950Z,33.25
2022-10-18T16:44:37.534Z,171.60
2022-10-18T16:47:10.677Z,130.38
2022-10-18T16:49:40.040Z,44.90
2022-10-18T16:52:14.933Z,49.88
2022-10-18T16:54:44.853Z,66.88
2022-10-18T16:57:13.612Z,77.18
2022-10-18T16:59:46.559Z,99.10
2022-10-18T17:02:19.141Z,59.38
2022-10-18T17:04:47.910Z,39.50
2022-10-18T17:07:25.699Z,66.65
2022-10-18T17:09:54.995Z,43.72
2022-10-18T17:12:31.409Z,46.42
2022-10-18T17:15:02.494Z,97.70
2022-10-18T17:17:32.370Z,38.20
2022-10-18T17:20:01.334Z,50.00
2022-10-18T17:22:32.954Z,68.00
2022-10-18T17:25:12.841Z,36.40
2022-10-18T17:27:41.628Z,34.80
2022-10-18T17:30:11.861Z,34.28
2022-10-18T17:32:44.051Z,33.25
2022-10-18T17:35:19.084Z,31.08
2022-10-18T17:37:53.187Z,26.05
2022-10-18T17:40:25.320Z,31.33
2022-10-18T17:42:55.511Z,39.53
2022-10-18T17:45:27.093Z,25.48
2022-10-18T17:47:57.859Z,27.95
2022-10-18T17:50:30.362Z,29.73
2022-10-18T17:52:59.883Z,24.98
2022-10-18T17:55:30.286Z,25.08
2022-10-18T17:58:01.266Z,30.90
2022-10-18T18:00:30.687Z,29.88
2022-10-18T18:02:59.255Z,41.45
2022-10-18T18:05:31.533Z,23.45
2022-10-18T18:08:04.510Z,29.05
2022-10-18T18:13:24.554Z,27.30
2022-10-18T18:15:55.783Z,74.80
2022-10-18T18:18:26.252Z,76.75
2022-10-18T18:20:55.606Z,65.28
2022-10-18T18:23:30.311Z,29.90
2022-10-18T18:26:02.423Z,31.17
2022-10-18T18:28:31.110Z,30.90
2022-10-18T18:31:04.952Z,32.08
2022-10-18T18:33:45.617Z,28.13
2022-10-18T18:36:25.539Z,22.88
2022-10-18T18:39:02.580Z,20.83
2022-10-18T18:41:31.417Z,24.05
2022-10-18T18:44:02.598Z,23.92
2022-10-18T18:46:37.384Z,25.38
2022-10-18T18:49:07.145Z,21.05
2022-10-18T18:51:40.385Z,30.38
2022-10-18T18:54:10.385Z,31.27
2022-10-18T18:56:42.819Z,26.48
2022-10-18T18:59:16.935Z,23.95
2022-10-18T19:01:50.791Z,21.58
2022-10-18T19:04:22.322Z,29.58
2022-10-18T19:06:51.699Z,30.63
2022-10-18T19:09:23.960Z,27.48
2022-10-18T19:11:55.004Z,24.73
2022-10-18T19:14:25.877Z,22.40
2022-10-18T19:17:04.674Z,22.70
2022-10-18T19:19:39.785Z,21.05
2022-10-18T19:22:12.593Z,25.00
2022-10-18T19:27:29.188Z,24.02
2022-10-18T19:30:05.134Z,23.17
2022-10-18T19:32:46.446Z,26.90
2022-10-18T19:35:18.323Z,28.00
2022-10-18T19:38:01.667Z,24.52
2022-10-18T19:40:34.754Z,21.33
2022-10-18T19:43:10.699Z,24.42
2022-10-18T19:45:40.072Z,25.25
2022-10-18T19:48:13.305Z,24.63
2022-10-18T19:50:43.173Z,24.63
2022-10-18T19:53:19.624Z,26.98
2022-10-18T19:55:48.031Z,27.48
2022-10-18T19:58:19.722Z,33.28
2022-10-18T20:00:52.687Z,26.77
2022-10-18T20:03:21.432Z,22.35
2022-10-18T20:05:57.632Z,21.13
2022-10-18T20:11:31.539Z,16.35
2022-10-18T20:14:01.265Z,25.73
2022-10-18T20:16:40.434Z,29.90
2022-10-18T20:19:11.977Z,77.80
2022-10-18T20:21:58.173Z,63.30
2022-10-18T20:24:26.824Z,30.23
2022-10-18T20:26:58.018Z,62.90
2022-10-18T20:29:26.958Z,66.35
2022-10-18T20:31:57.096Z,53.17
2022-10-18T20:34:33.692Z,129.85
2022-10-18T20:37:08.681Z,304.05
2022-10-18T20:39:38.811Z,111.53
2022-10-18T20:42:07.380Z,211.25
2022-10-18T20:44:43.517Z,323.25
2022-10-18T20:47:12.370Z,50.13
2022-10-18T20:49:50.005Z,27.52
2022-10-18T20:52:19.332Z,36.78
2022-10-18T20:54:55.402Z,37.75
2022-10-18T20:57:24.941Z,27.60
2022-10-18T20:59:55.863Z,26.33
2022-10-18T21:02:26.012Z,18.85
2022-10-18T21:05:01.115Z,19.23
2022-10-18T21:07:37.330Z,46.50
2022-10-18T21:10:10.037Z,28.70
2022-10-18T21:12:42.700Z,38.63
2022-10-18T21:15:12.550Z,35.90
2022-10-18T21:17:41.451Z,22.33
2022-10-18T21:20:11.774Z,18.10
2022-10-18T21:22:40.413Z,18.65
2022-10-18T21:25:10.535Z,27.30
2022-10-18T21:27:42.466Z,20.42
2022-10-18T21:30:20.333Z,20.33
2022-10-18T21:32:50.666Z,21.13
2022-10-18T21:35:36.108Z,18.40
2022-10-18T21:38:06.037Z,19.35
2022-10-18T21:40:39.829Z,21.13
2022-10-18T21:43:12.094Z,20.05
2022-10-18T21:45:40.449Z,33.85
2022-10-18T21:48:18.425Z,20.50
2022-10-18T21:50:48.100Z,25.77
2022-10-18T21:53:20.031Z,33.38
2022-10-18T21:55:50.224Z,19.25
2022-10-18T21:58:19.704Z,15.77
2022-10-18T22:00:49.798Z,18.58
2022-10-18T22:03:23.623Z,20.60
2022-10-18T22:06:03.307Z,19.25
2022-10-18T22:08:35.082Z,17.05
2022-10-18T22:11:08.631Z,18.25
2022-10-18T22:13:39.658Z,16.27
2022-10-18T22:16:18.516Z,19.63
2022-10-18T22:18:49.252Z,28.75
2022-10-18T22:21:20.638Z,24.40
2022-10-18T22:23:55.247Z,25.80
2022-10-18T22:26:29.262Z,29.90
2022-10-18T22:29:13.162Z,22.25
2022-10-18T22:31:50.984Z,20.88
2022-10-18T22:34:22.187Z,14.60
2022-10-18T22:36:51.427Z,20.00
2022-10-18T22:39:21.117Z,18.13
2022-10-18T22:41:57.697Z,20.80
2022-10-18T22:44:28.253Z,17.65
2022-10-18T22:46:57.411Z,18.90
2022-10-18T22:49:25.897Z,19.55
2022-10-18T22:51:54.782Z,17.70
2022-10-18T22:54:24.570Z,15.60
2022-10-18T22:56:55.024Z,21.35
2022-10-18T22:59:25.103Z,18.23
2022-10-18T23:01:54.729Z,14.65
2022-10-18T23:04:23.076Z,16.73
2022-10-18T23:06:52.968Z,16.92
2022-10-18T23:09:22.631Z,17.60
2022-10-18T23:11:51.545Z,14.25
2022-10-18T23:14:19.573Z,15.35
2022-10-18T23:16:48.516Z,13.98
2022-10-18T23:21:51.853Z,13.55
2022-10-18T23:24:19.949Z,11.98
2022-10-18T23:26:49.121Z,9.05
2022-10-18T23:29:18.219Z,13.82
2022-10-18T23:31:46.550Z,16.45
2022-10-18T23:34:15.472Z,12.05
2022-10-18T23:39:21.112Z,15.63
2022-10-18T23:42:01.285Z,16.33
2022-10-18T23:44:29.300Z,13.10
2022-10-18T23:47:06.375Z,12.52
2022-10-18T23:49:36.838Z,16.42
2022-10-18T23:52:09.446Z,12.15
2022-10-18T23:54:38.365Z,12.70
2022-10-18T23:57:16.968Z,17.73
2022-10-18T23:59:46.486Z,15.80
